createdAt,value
2019-05-19T00:00:02.465Z,100.00
2019-05-19T00:03:06.879Z,100.00
2019-05-19T00:06:09.883Z,100.00
2019-05-19T00:09:16.382Z,100.00
2019-05-19T00:12:18.043Z,100.00
2019-05-19T00:15:20.982Z,100.00
2019-05-19T00:18:23.926Z,100.00
2019-05-19T00:21:26.839Z,100.00
2019-05-19T00:24:29.864Z,100.00
2019-05-19T00:27:32.916Z,100.00
2019-05-19T00:30:35.833Z,100.00
2019-05-19T00:33:38.833Z,100.00
2019-05-19T00:36:41.870Z,100.00
2019-05-19T00:39:44.864Z,100.00
2019-05-19T00:42:47.842Z,100.00
2019-05-19T00:45:50.745Z,100.00
2019-05-19T00:48:53.673Z,100.00
2019-05-19T00:51:56.611Z,100.00
2019-05-19T00:54:59.569Z,100.00
2019-05-19T00:58:03.211Z,100.00
2019-05-19T01:01:06.108Z,100.00
2019-05-19T01:04:09.036Z,100.00
2019-05-19T01:07:11.958Z,100.00
2019-05-19T01:10:15.086Z,100.00
2019-05-19T01:13:18.001Z,100.00
2019-05-19T01:16:20.960Z,100.00
2019-05-19T01:19:23.883Z,100.00
2019-05-19T01:22:27.248Z,100.00
2019-05-19T01:25:30.308Z,100.00
2019-05-19T01:28:33.234Z,100.00
2019-05-19T01:31:36.155Z,100.00
2019-05-19T01:34:39.083Z,100.00
2019-05-19T01:37:42.037Z,100.00
2019-05-19T01:40:44.980Z,100.00
2019-05-19T01:43:47.909Z,100.00
2019-05-19T01:46:50.831Z,100.00
2019-05-19T01:49:53.780Z,100.00
2019-05-19T01:52:56.700Z,100.00
2019-05-19T01:55:59.746Z,100.00
2019-05-19T01:59:02.683Z,100.00
2019-05-19T02:02:05.578Z,100.00
2019-05-19T02:05:09.933Z,100.00
2019-05-19T02:08:12.890Z,100.00
2019-05-19T02:11:15.861Z,100.00
2019-05-19T02:14:18.759Z,100.00
2019-05-19T02:17:21.685Z,100.00
2019-05-19T02:20:32.818Z,100.00
2019-05-19T02:23:29.436Z,100.00
2019-05-19T02:26:32.404Z,100.00
2019-05-19T02:29:35.328Z,100.00
2019-05-19T02:32:38.252Z,100.00
2019-05-19T02:35:41.191Z,100.00
2019-05-19T02:38:44.201Z,100.00
2019-05-19T02:41:48.877Z,100.00
2019-05-19T02:44:54.661Z,100.00
2019-05-19T02:48:01.436Z,100.00
2019-05-19T02:51:08.153Z,100.00
2019-05-19T02:54:12.692Z,100.00
2019-05-19T02:57:16.725Z,100.00
2019-05-19T03:00:43.054Z,100.00
2019-05-19T03:03:46.025Z,100.00
2019-05-19T03:06:48.930Z,100.00
2019-05-19T03:09:52.161Z,100.00
2019-05-19T03:12:55.110Z,100.00
2019-05-19T03:15:58.025Z,100.00
2019-05-19T03:19:01.418Z,100.00
2019-05-19T03:22:04.355Z,100.00
2019-05-19T03:25:07.316Z,100.00
2019-05-19T03:28:10.245Z,100.00
2019-05-19T03:31:23.750Z,100.00
2019-05-19T03:34:26.766Z,100.00
2019-05-19T03:37:29.729Z,100.00
2019-05-19T03:40:33.288Z,100.00
2019-05-19T03:43:36.210Z,100.00
2019-05-19T03:46:39.147Z,100.00
2019-05-19T03:49:42.083Z,100.00
2019-05-19T03:52:44.991Z,100.00
2019-05-19T03:55:48.744Z,100.00
2019-05-19T03:58:51.649Z,100.00
2019-05-19T04:01:55.698Z,100.00
2019-05-19T04:04:58.610Z,100.00
2019-05-19T04:08:01.540Z,100.00
2019-05-19T04:11:04.463Z,100.00
2019-05-19T04:14:07.365Z,100.00
2019-05-19T04:17:10.354Z,100.00
2019-05-19T04:20:14.374Z,100.00
2019-05-19T04:23:17.428Z,100.00
2019-05-19T04:26:20.354Z,100.00
2019-05-19T04:29:23.330Z,100.00
2019-05-19T04:32:26.250Z,100.00
2019-05-19T04:35:29.459Z,100.00
2019-05-19T04:38:32.393Z,100.00
2019-05-19T04:41:35.330Z,100.00
2019-05-19T04:44:38.631Z,100.00
2019-05-19T04:47:41.910Z,100.00
2019-05-19T04:50:44.829Z,100.00
2019-05-19T04:53:47.769Z,100.00
2019-05-19T04:56:50.731Z,100.00
2019-05-19T04:59:53.666Z,100.00
2019-05-19T05:02:57.087Z,100.00
2019-05-19T05:06:00.009Z,100.00
2019-05-19T05:09:04.687Z,100.00
2019-05-19T05:12:07.584Z,100.00
2019-05-19T05:15:11.597Z,100.00
2019-05-19T05:18:14.497Z,100.00
2019-05-19T05:21:17.752Z,100.00
2019-05-19T05:24:20.640Z,100.00
2019-05-19T05:27:24.259Z,100.00
2019-05-19T05:30:29.929Z,100.00
2019-05-19T05:33:32.833Z,100.00
2019-05-19T05:36:36.067Z,100.00
2019-05-19T05:39:38.964Z,100.00
2019-05-19T05:42:41.907Z,100.00
2019-05-19T05:45:44.855Z,100.00
2019-05-19T05:48:47.789Z,100.00
2019-05-19T05:51:50.786Z,100.00
2019-05-19T05:54:53.689Z,100.00
2019-05-19T05:57:56.641Z,100.00
2019-05-19T06:00:59.564Z,100.00
2019-05-19T06:04:02.592Z,100.00
2019-05-19T06:07:05.512Z,100.00
2019-05-19T06:10:09.729Z,100.00
2019-05-19T06:13:12.737Z,100.00
2019-05-19T06:16:15.647Z,100.00
2019-05-19T06:19:18.927Z,100.00
2019-05-19T06:22:21.855Z,100.00
2019-05-19T06:25:25.553Z,100.00
2019-05-19T06:28:29.035Z,100.00
2019-05-19T06:31:32.521Z,100.00
2019-05-19T06:34:35.441Z,100.00
2019-05-19T06:37:38.346Z,100.00
2019-05-19T06:40:41.272Z,100.00
2019-05-19T06:43:44.193Z,100.00
2019-05-19T06:46:48.218Z,100.00
2019-05-19T06:49:51.141Z,100.00
2019-05-19T06:52:54.127Z,100.00
2019-05-19T06:55:57.049Z,100.00
2019-05-19T06:58:59.979Z,100.00
2019-05-19T07:02:03.387Z,100.00
2019-05-19T07:05:06.667Z,100.00
2019-05-19T07:08:09.594Z,100.00
2019-05-19T07:11:12.521Z,100.00
2019-05-19T07:14:15.431Z,100.00
2019-05-19T07:17:18.361Z,100.00
2019-05-19T07:20:21.266Z,100.00
2019-05-19T07:23:28.333Z,100.00
2019-05-19T07:26:29.047Z,100.00
2019-05-19T07:29:31.974Z,100.00
2019-05-19T07:32:34.927Z,100.00
2019-05-19T07:35:38.146Z,100.00
2019-05-19T07:38:41.090Z,100.00
2019-05-19T07:41:43.997Z,100.00
2019-05-19T07:44:46.943Z,100.00
2019-05-19T07:47:49.861Z,100.00
2019-05-19T07:50:53.100Z,100.00
2019-05-19T07:53:56.037Z,100.00
2019-05-19T07:56:59.306Z,100.00
2019-05-19T08:00:04.910Z,100.00
2019-05-19T08:03:07.995Z,100.00
2019-05-19T08:06:10.924Z,100.00
2019-05-19T08:09:13.928Z,100.00
2019-05-19T08:12:16.835Z,100.00
2019-05-19T08:15:19.763Z,100.00
2019-05-19T08:18:22.673Z,100.00
2019-05-19T08:21:25.917Z,100.00
2019-05-19T08:24:29.173Z,100.00
2019-05-19T08:27:32.335Z,100.00
2019-05-19T08:30:35.303Z,100.00
2019-05-19T08:33:38.235Z,100.00
2019-05-19T08:36:41.253Z,100.00
2019-05-19T08:39:44.284Z,100.00
2019-05-19T08:42:47.585Z,100.00
2019-05-19T08:45:50.531Z,100.00
2019-05-19T08:48:53.441Z,100.00
2019-05-19T08:51:56.379Z,100.00
2019-05-19T08:54:59.289Z,100.00
2019-05-19T08:58:02.904Z,100.00
2019-05-19T09:01:05.931Z,100.00
2019-05-19T09:04:09.004Z,100.00
2019-05-19T09:07:11.935Z,100.00
2019-05-19T09:10:15.156Z,100.00
2019-05-19T09:13:18.117Z,100.00
2019-05-19T09:16:21.079Z,100.00
2019-05-19T09:19:24.087Z,100.00
2019-05-19T09:22:27.013Z,100.00
2019-05-19T09:25:30.932Z,100.00
2019-05-19T09:28:33.981Z,100.00
2019-05-19T09:31:36.942Z,100.00
2019-05-19T09:34:40.207Z,100.00
2019-05-19T09:37:43.151Z,100.00
2019-05-19T09:40:46.080Z,100.00
2019-05-19T09:43:49.042Z,100.00
2019-05-19T09:46:51.991Z,100.00
2019-05-19T09:49:54.916Z,100.00
2019-05-19T09:52:57.839Z,100.00
2019-05-19T09:56:00.766Z,100.00
2019-05-19T09:59:03.703Z,100.00
2019-05-19T10:02:06.733Z,100.00
2019-05-19T10:05:10.372Z,100.00
2019-05-19T10:08:13.325Z,100.00
2019-05-19T10:12:05.283Z,100.00
2019-05-19T10:15:11.930Z,100.00
2019-05-19T10:18:15.170Z,95.32
2019-05-19T10:21:18.106Z,98.80
2019-05-19T10:24:21.036Z,99.59
2019-05-19T10:27:24.558Z,98.68
2019-05-19T10:30:27.514Z,93.13
2019-05-19T10:33:30.436Z,100.00
2019-05-19T10:36:33.459Z,100.00
2019-05-19T10:39:36.371Z,100.00
2019-05-19T10:42:39.773Z,100.00
2019-05-19T10:45:45.044Z,100.00
2019-05-19T10:48:48.068Z,100.00
2019-05-19T10:51:51.776Z,100.00
2019-05-19T10:54:54.793Z,100.00
2019-05-19T10:57:57.721Z,100.00
2019-05-19T11:01:00.714Z,100.00
2019-05-19T11:04:03.796Z,100.00
2019-05-19T11:07:06.782Z,100.00
2019-05-19T11:10:09.873Z,100.00
2019-05-19T11:13:13.187Z,100.00
2019-05-19T11:16:16.074Z,100.00
2019-05-19T11:19:19.017Z,100.00
2019-05-19T11:22:21.932Z,100.00
2019-05-19T11:25:33.470Z,100.00
2019-05-19T11:28:29.727Z,100.00
2019-05-19T11:31:32.637Z,95.06
2019-05-19T11:34:36.352Z,85.58
2019-05-19T11:37:39.271Z,89.77
2019-05-19T11:40:42.489Z,90.55
2019-05-19T11:43:45.421Z,88.33
2019-05-19T11:46:48.352Z,84.66
2019-05-19T11:49:51.327Z,85.83
2019-05-19T11:52:56.149Z,84.59
2019-05-19T11:56:06.767Z,83.09
2019-05-19T11:59:04.012Z,79.10
2019-05-19T12:02:06.937Z,79.32
2019-05-19T12:05:10.131Z,79.53
2019-05-19T12:08:13.138Z,82.95
2019-05-19T12:11:16.062Z,83.33
2019-05-19T12:14:19.270Z,87.41
2019-05-19T12:17:22.195Z,83.13
2019-05-19T12:20:25.115Z,85.13
2019-05-19T12:23:28.039Z,96.26
2019-05-19T12:26:30.949Z,97.26
2019-05-19T12:29:34.876Z,100.00
2019-05-19T12:32:37.803Z,100.00
2019-05-19T12:35:40.737Z,100.00
2019-05-19T12:38:43.693Z,100.00
2019-05-19T12:41:46.681Z,100.00
2019-05-19T12:44:49.624Z,100.00
2019-05-19T12:47:52.571Z,100.00
2019-05-19T12:50:55.585Z,100.00
2019-05-19T12:53:58.922Z,100.00
2019-05-19T12:57:01.842Z,100.00
2019-05-19T13:00:05.112Z,100.00
2019-05-19T13:03:08.616Z,100.00
2019-05-19T13:06:12.092Z,100.00
2019-05-19T13:09:15.482Z,100.00
2019-05-19T13:12:18.701Z,100.00
2019-05-19T13:15:23.131Z,100.00
2019-05-19T13:18:26.043Z,100.00
2019-05-19T13:21:29.047Z,100.00
2019-05-19T13:24:31.983Z,100.00
2019-05-19T13:27:35.277Z,100.00
2019-05-19T13:30:38.679Z,100.00
2019-05-19T13:33:41.588Z,100.00
2019-05-19T13:36:44.559Z,100.00
2019-05-19T13:39:47.483Z,100.00
2019-05-19T13:42:50.727Z,100.00
2019-05-19T13:45:53.656Z,100.00
2019-05-19T13:48:56.563Z,100.00
2019-05-19T13:51:59.481Z,100.00
2019-05-19T13:55:02.594Z,100.00
2019-05-19T13:58:05.600Z,100.00
2019-05-19T14:01:08.522Z,100.00
2019-05-19T14:04:11.540Z,100.00
2019-05-19T14:07:14.500Z,100.00
2019-05-19T14:10:17.422Z,100.00
2019-05-19T14:13:20.356Z,100.00
2019-05-19T14:16:23.280Z,100.00
2019-05-19T14:19:26.425Z,100.00
2019-05-19T14:22:29.791Z,100.00
2019-05-19T14:25:32.699Z,100.00
2019-05-19T14:28:35.621Z,100.00
2019-05-19T14:31:38.540Z,100.00
2019-05-19T14:34:41.466Z,100.00
2019-05-19T14:37:44.405Z,100.00
2019-05-19T14:40:47.603Z,100.00
2019-05-19T14:43:50.547Z,100.00
2019-05-19T14:46:54.823Z,100.00
2019-05-19T14:49:57.739Z,100.00
2019-05-19T14:53:01.080Z,100.00
2019-05-19T14:56:04.287Z,100.00
2019-05-19T14:59:07.251Z,100.00
2019-05-19T15:02:10.192Z,100.00
2019-05-19T15:05:13.820Z,100.00
2019-05-19T15:08:17.763Z,100.00
2019-05-19T15:11:21.062Z,100.00
2019-05-19T15:14:23.996Z,100.00
2019-05-19T15:17:26.917Z,100.00
2019-05-19T15:20:29.873Z,100.00
2019-05-19T15:23:32.885Z,100.00
2019-05-19T15:26:35.760Z,100.00
2019-05-19T15:29:38.680Z,100.00
2019-05-19T15:32:41.580Z,100.00
2019-05-19T15:35:44.551Z,100.00
2019-05-19T15:38:47.920Z,100.00
2019-05-19T15:41:50.826Z,100.00
2019-05-19T15:44:53.761Z,100.00
2019-05-19T15:47:56.672Z,100.00
2019-05-19T15:50:59.601Z,100.00
2019-05-19T15:54:02.639Z,100.00
2019-05-19T15:57:05.548Z,100.00
2019-05-19T16:00:09.660Z,100.00
2019-05-19T16:03:12.653Z,100.00
2019-05-19T16:06:15.623Z,100.00
2019-05-19T16:09:18.593Z,100.00
2019-05-19T16:12:21.516Z,100.00
2019-05-19T16:15:24.509Z,100.00
2019-05-19T16:18:27.499Z,100.00
2019-05-19T16:21:30.422Z,100.00
2019-05-19T16:24:33.380Z,100.00
2019-05-19T16:27:36.629Z,100.00
2019-05-19T16:30:39.576Z,100.00
2019-05-19T16:33:44.222Z,100.00
2019-05-19T16:36:47.171Z,100.00
2019-05-19T16:39:50.382Z,100.00
2019-05-19T16:42:54.020Z,100.00
2019-05-19T16:45:56.970Z,100.00
2019-05-19T16:48:59.888Z,100.00
2019-05-19T16:52:02.823Z,100.00
2019-05-19T16:55:29.565Z,100.00
2019-05-19T16:58:44.492Z,100.00
2019-05-19T17:01:38.591Z,100.00
2019-05-19T17:04:41.789Z,100.00
2019-05-19T17:07:44.817Z,100.00
2019-05-19T17:10:47.827Z,100.00
2019-05-19T17:13:50.882Z,100.00
2019-05-19T17:16:53.839Z,100.00
2019-05-19T17:19:56.778Z,100.00
2019-05-19T17:22:59.793Z,100.00
2019-05-19T17:26:02.735Z,100.00
2019-05-19T17:29:05.668Z,100.00
2019-05-19T17:32:08.611Z,100.00
2019-05-19T17:35:11.648Z,100.00
2019-05-19T17:38:14.608Z,100.00
2019-05-19T17:41:17.608Z,100.00
2019-05-19T17:44:20.549Z,100.00
2019-05-19T17:47:23.500Z,100.00
2019-05-19T17:50:33.720Z,100.00
2019-05-19T17:53:36.644Z,100.00
2019-05-19T17:56:40.816Z,100.00
2019-05-19T17:59:49.191Z,100.00
2019-05-19T18:02:52.105Z,100.00
2019-05-19T18:05:55.037Z,100.00
2019-05-19T18:08:57.966Z,100.00
2019-05-19T18:12:00.916Z,100.00
2019-05-19T18:15:04.263Z,100.00
2019-05-19T18:18:07.170Z,100.00
2019-05-19T18:21:10.295Z,100.00
2019-05-19T18:24:13.244Z,100.00
2019-05-19T18:27:16.186Z,100.00
2019-05-19T18:30:19.226Z,100.00
2019-05-19T18:33:22.240Z,100.00
2019-05-19T18:36:25.176Z,100.00
2019-05-19T18:39:28.150Z,100.00
2019-05-19T18:42:31.459Z,100.00
2019-05-19T18:45:34.417Z,100.00
2019-05-19T18:48:37.339Z,100.00
2019-05-19T18:51:40.273Z,100.00
2019-05-19T18:54:43.232Z,100.00
2019-05-19T18:57:46.271Z,100.00
2019-05-19T19:00:49.197Z,100.00
2019-05-19T19:03:52.099Z,100.00
2019-05-19T19:06:55.233Z,100.00
2019-05-19T19:09:58.140Z,100.00
2019-05-19T19:13:01.117Z,100.00
2019-05-19T19:16:04.039Z,100.00
2019-05-19T19:19:08.163Z,100.00
2019-05-19T19:22:11.212Z,100.00
2019-05-19T19:25:14.153Z,100.00
2019-05-19T19:28:17.490Z,100.00
2019-05-19T19:31:20.397Z,100.00
2019-05-19T19:34:23.361Z,100.00
2019-05-19T19:37:26.328Z,100.00
2019-05-19T19:40:30.558Z,100.00
2019-05-19T19:43:34.376Z,100.00
2019-05-19T19:46:37.642Z,100.00
2019-05-19T19:49:41.688Z,100.00
2019-05-19T19:52:45.330Z,100.00
2019-05-19T19:55:49.474Z,100.00
2019-05-19T19:58:52.413Z,100.00
2019-05-19T20:01:55.389Z,100.00
2019-05-19T20:04:59.542Z,100.00
2019-05-19T20:08:02.909Z,100.00
2019-05-19T20:11:06.178Z,100.00
2019-05-19T20:14:09.120Z,100.00
2019-05-19T20:17:12.146Z,100.00
2019-05-19T20:20:15.072Z,100.00
2019-05-19T20:23:17.996Z,100.00
2019-05-19T20:26:21.048Z,100.00
2019-05-19T20:29:23.981Z,100.00
2019-05-19T20:32:26.891Z,100.00
2019-05-19T20:35:30.928Z,100.00
2019-05-19T20:38:33.943Z,100.00
2019-05-19T20:41:36.876Z,100.00
2019-05-19T20:44:39.800Z,100.00
2019-05-19T20:47:42.735Z,100.00
2019-05-19T20:50:46.066Z,100.00
2019-05-19T20:53:48.963Z,100.00
2019-05-19T20:56:51.938Z,100.00
2019-05-19T20:59:54.845Z,100.00
2019-05-19T21:02:58.176Z,100.00
2019-05-19T21:06:01.348Z,100.00
2019-05-19T21:09:05.172Z,100.00
2019-05-19T21:12:08.408Z,100.00
2019-05-19T21:15:11.748Z,100.00
2019-05-19T21:18:15.041Z,100.00
2019-05-19T21:21:18.037Z,100.00
2019-05-19T21:24:20.983Z,100.00
2019-05-19T21:27:24.398Z,100.00
2019-05-19T21:30:27.304Z,100.00
2019-05-19T21:33:30.601Z,100.00
2019-05-19T21:36:33.845Z,100.00
2019-05-19T21:39:36.777Z,100.00
2019-05-19T21:42:40.056Z,100.00
2019-05-19T21:45:42.992Z,100.00
2019-05-19T21:48:45.917Z,100.00
2019-05-19T21:51:48.840Z,100.00
2019-05-19T21:54:51.979Z,100.00
2019-05-19T21:57:54.910Z,100.00
2019-05-19T22:00:57.941Z,100.00
2019-05-19T22:04:00.868Z,100.00
2019-05-19T22:07:10.625Z,100.00
2019-05-19T22:10:13.877Z,100.00
2019-05-19T22:13:16.788Z,100.00
2019-05-19T22:16:19.702Z,100.00
2019-05-19T22:19:22.631Z,100.00
2019-05-19T22:22:25.536Z,100.00
2019-05-19T22:25:28.455Z,100.00
2019-05-19T22:28:31.444Z,100.00
2019-05-19T22:31:36.868Z,100.00
2019-05-19T22:34:39.270Z,100.00
2019-05-19T22:37:42.177Z,100.00
2019-05-19T22:40:45.101Z,100.00
2019-05-19T22:43:48.043Z,100.00
2019-05-19T22:46:51.316Z,100.00
2019-05-19T22:49:54.249Z,100.00
2019-05-19T22:52:57.415Z,100.00
2019-05-19T22:56:00.343Z,100.00
2019-05-19T22:59:03.325Z,100.00
2019-05-19T23:02:09.192Z,100.00
2019-05-19T23:05:11.582Z,100.00
2019-05-19T23:08:14.484Z,100.00
2019-05-19T23:11:17.520Z,100.00
2019-05-19T23:14:20.431Z,100.00
2019-05-19T23:17:23.755Z,100.00
2019-05-19T23:20:26.724Z,100.00
2019-05-19T23:23:29.637Z,100.00
2019-05-19T23:26:32.557Z,100.00
2019-05-19T23:29:35.545Z,100.00
2019-05-19T23:32:39.574Z,100.00
2019-05-19T23:35:42.499Z,100.00
2019-05-19T23:38:45.400Z,100.00
2019-05-19T23:41:48.356Z,100.00
2019-05-19T23:44:51.264Z,100.00
2019-05-19T23:47:54.187Z,100.00
2019-05-19T23:50:57.123Z,100.00
2019-05-19T23:54:00.037Z,100.00
2019-05-19T23:57:02.956Z,100.00
